sensor_id;sensor_type;location;lat;lon;timestamp;pressure;altitude;pressure_sealevel;temperature;humidity
9717;BME280;4897;43.570;27.832;2023-03-16T00:00:41;98019.50;;;8.32;100.00
9717;BME280;4897;43.570;27.832;2023-03-16T00:03:08;98029.41;;;8.39;100.00
9717;BME280;4897;43.570;27.832;2023-03-16T00:05:35;98027.19;;;8.35;100.00
9717;BME280;4897;43.570;27.832;2023-03-16T00:08:02;98020.34;;;8.32;100.00
9717;BME280;4897;43.570;27.832;2023-03-16T00:10:29;98037.88;;;8.25;100.00
9717;BME280;4897;43.570;27.832;2023-03-16T00:12:56;98034.47;;;8.33;100.00
9717;BME280;4897;43.570;27.832;2023-03-16T00:15:23;98024.94;;;8.21;100.00
9717;BME280;4897;43.570;27.832;2023-03-16T00:17:52;98028.31;;;8.23;100.00
9717;BME280;4897;43.570;27.832;2023-03-16T00:20:19;98030.56;;;8.27;100.00
9717;BME280;4897;43.570;27.832;2023-03-16T00:22:47;98024.53;;;8.35;100.00
9717;BME280;4897;43.570;27.832;2023-03-16T00:25:14;98025.22;;;8.37;100.00
9717;BME280;4897;43.570;27.832;2023-03-16T00:27:41;98025.78;;;8.40;100.00
9717;BME280;4897;43.570;27.832;2023-03-16T00:30:09;98038.09;;;8.41;100.00
9717;BME280;4897;43.570;27.832;2023-03-16T00:32:37;98030.81;;;8.43;100.00
9717;BME280;4897;43.570;27.832;2023-03-16T00:35:06;98036.84;;;8.45;100.00
9717;BME280;4897;43.570;27.832;2023-03-16T00:37:33;98035.03;;;8.46;100.00
9717;BME280;4897;43.570;27.832;2023-03-16T00:40:01;98032.50;;;8.44;100.00
9717;BME280;4897;43.570;27.832;2023-03-16T00:42:32;98037.38;;;8.58;100.00
9717;BME280;4897;43.570;27.832;2023-03-16T00:44:59;97989.63;;;8.38;100.00
9717;BME280;4897;43.570;27.832;2023-03-16T00:47:28;98039.75;;;8.61;100.00
9717;BME280;4897;43.570;27.832;2023-03-16T00:49:56;98006.25;;;8.49;100.00
9717;BME280;4897;43.570;27.832;2023-03-16T00:52:24;98026.00;;;8.56;100.00
9717;BME280;4897;43.570;27.832;2023-03-16T00:54:53;98041.69;;;8.69;100.00
9717;BME280;4897;43.570;27.832;2023-03-16T00:57:22;98033.53;;;8.70;100.00
9717;BME280;4897;43.570;27.832;2023-03-16T00:59:49;98029.25;;;8.50;100.00
9717;BME280;4897;43.570;27.832;2023-03-16T01:02:18;98035.41;;;8.60;100.00
9717;BME280;4897;43.570;27.832;2023-03-16T01:04:48;98031.34;;;8.56;100.00
9717;BME280;4897;43.570;27.832;2023-03-16T01:07:15;98036.09;;;8.62;100.00
9717;BME280;4897;43.570;27.832;2023-03-16T01:09:43;98035.88;;;8.46;100.00
9717;BME280;4897;43.570;27.832;2023-03-16T01:12:14;98051.84;;;8.46;100.00
9717;BME280;4897;43.570;27.832;2023-03-16T01:14:42;98058.41;;;8.52;100.00
9717;BME280;4897;43.570;27.832;2023-03-16T01:17:10;98038.53;;;8.46;100.00
9717;BME280;4897;43.570;27.832;2023-03-16T01:19:38;98061.78;;;8.54;100.00
9717;BME280;4897;43.570;27.832;2023-03-16T01:22:07;98052.81;;;8.55;100.00
9717;BME280;4897;43.570;27.832;2023-03-16T01:24:35;98067.25;;;8.52;100.00
9717;BME280;4897;43.570;27.832;2023-03-16T01:27:04;98062.19;;;8.49;100.00
9717;BME280;4897;43.570;27.832;2023-03-16T01:29:31;98067.53;;;8.49;100.00
9717;BME280;4897;43.570;27.832;2023-03-16T01:31:58;98063.91;;;8.50;100.00
9717;BME280;4897;43.570;27.832;2023-03-16T01:34:25;98047.50;;;8.45;100.00
9717;BME280;4897;43.570;27.832;2023-03-16T01:36:53;98065.03;;;8.38;100.00
9717;BME280;4897;43.570;27.832;2023-03-16T01:39:19;98058.56;;;8.50;100.00
9717;BME280;4897;43.570;27.832;2023-03-16T01:41:47;98069.22;;;8.50;100.00
9717;BME280;4897;43.570;27.832;2023-03-16T01:44:17;98034.22;;;8.36;100.00
9717;BME280;4897;43.570;27.832;2023-03-16T01:46:44;98007.56;;;8.26;100.00
9717;BME280;4897;43.570;27.832;2023-03-16T01:49:13;98052.38;;;8.50;100.00
9717;BME280;4897;43.570;27.832;2023-03-16T01:51:45;98065.75;;;8.40;100.00
9717;BME280;4897;43.570;27.832;2023-03-16T01:54:21;98062.94;;;8.13;100.00
9717;BME280;4897;43.570;27.832;2023-03-16T01:56:54;98059.28;;;8.33;100.00
9717;BME280;4897;43.570;27.832;2023-03-16T01:59:28;98068.69;;;8.47;100.00
9717;BME280;4897;43.570;27.832;2023-03-16T02:01:57;98061.09;;;8.33;100.00
9717;BME280;4897;43.570;27.832;2023-03-16T02:04:45;98018.94;;;8.09;100.00
9717;BME280;4897;43.570;27.832;2023-03-16T02:07:15;98069.78;;;8.44;100.00
9717;BME280;4897;43.570;27.832;2023-03-16T02:09:45;98069.50;;;8.47;100.00
9717;BME280;4897;43.570;27.832;2023-03-16T02:12:15;98071.75;;;8.42;100.00
9717;BME280;4897;43.570;27.832;2023-03-16T02:14:45;98072.63;;;8.33;100.00
9717;BME280;4897;43.570;27.832;2023-03-16T02:17:14;98077.50;;;8.38;100.00
9717;BME280;4897;43.570;27.832;2023-03-16T02:19:48;98083.81;;;8.46;100.00
9717;BME280;4897;43.570;27.832;2023-03-16T02:22:18;98087.75;;;8.42;100.00
9717;BME280;4897;43.570;27.832;2023-03-16T02:24:49;98101.19;;;8.50;100.00
9717;BME280;4897;43.570;27.832;2023-03-16T02:27:21;98101.88;;;8.52;100.00
9717;BME280;4897;43.570;27.832;2023-03-16T02:29:59;98096.00;;;8.49;100.00
9717;BME280;4897;43.570;27.832;2023-03-16T02:32:29;98104.81;;;8.59;100.00
9717;BME280;4897;43.570;27.832;2023-03-16T02:34:58;98104.25;;;8.55;100.00
9717;BME280;4897;43.570;27.832;2023-03-16T02:37:26;98109.53;;;8.74;100.00
9717;BME280;4897;43.570;27.832;2023-03-16T02:39:53;98106.44;;;8.79;100.00
9717;BME280;4897;43.570;27.832;2023-03-16T02:42:22;98108.72;;;8.74;100.00
9717;BME280;4897;43.570;27.832;2023-03-16T02:44:53;98098.28;;;8.80;100.00
9717;BME280;4897;43.570;27.832;2023-03-16T02:47:27;98076.47;;;8.67;100.00
9717;BME280;4897;43.570;27.832;2023-03-16T02:49:55;98073.06;;;8.75;100.00
9717;BME280;4897;43.570;27.832;2023-03-16T02:52:23;98092.56;;;8.75;100.00
9717;BME280;4897;43.570;27.832;2023-03-16T02:54:50;98093.53;;;8.84;100.00
9717;BME280;4897;43.570;27.832;2023-03-16T02:57:17;98094.94;;;8.78;100.00
9717;BME280;4897;43.570;27.832;2023-03-16T02:59:45;98096.38;;;8.73;100.00
9717;BME280;4897;43.570;27.832;2023-03-16T03:02:12;98094.72;;;8.62;100.00
9717;BME280;4897;43.570;27.832;2023-03-16T03:04:41;98074.00;;;8.47;100.00
9717;BME280;4897;43.570;27.832;2023-03-16T03:07:11;98101.47;;;8.57;100.00
9717;BME280;4897;43.570;27.832;2023-03-16T03:09:39;98058.16;;;8.26;100.00
9717;BME280;4897;43.570;27.832;2023-03-16T03:12:07;98100.06;;;8.43;100.00
9717;BME280;4897;43.570;27.832;2023-03-16T03:14:35;98109.91;;;8.33;100.00
9717;BME280;4897;43.570;27.832;2023-03-16T03:17:02;98120.09;;;8.47;100.00
9717;BME280;4897;43.570;27.832;2023-03-16T03:19:29;98114.09;;;8.55;100.00
9717;BME280;4897;43.570;27.832;2023-03-16T03:21:59;98122.06;;;8.64;100.00
9717;BME280;4897;43.570;27.832;2023-03-16T03:24:28;98112.38;;;8.63;100.00
9717;BME280;4897;43.570;27.832;2023-03-16T03:26:56;98123.88;;;8.73;100.00
9717;BME280;4897;43.570;27.832;2023-03-16T03:29:25;97991.75;;;8.05;100.00
9717;BME280;4897;43.570;27.832;2023-03-16T03:31:59;98125.91;;;8.89;100.00
9717;BME280;4897;43.570;27.832;2023-03-16T03:34:26;98121.00;;;8.84;100.00
9717;BME280;4897;43.570;27.832;2023-03-16T03:36:53;98137.56;;;8.88;100.00
9717;BME280;4897;43.570;27.832;2023-03-16T03:39:21;98130.69;;;8.85;100.00
9717;BME280;4897;43.570;27.832;2023-03-16T03:41:48;98136.72;;;8.88;100.00
9717;BME280;4897;43.570;27.832;2023-03-16T03:44:19;98148.03;;;9.09;100.00
9717;BME280;4897;43.570;27.832;2023-03-16T03:46:46;98142.81;;;9.17;100.00
9717;BME280;4897;43.570;27.832;2023-03-16T03:49:13;98138.66;;;9.05;100.00
9717;BME280;4897;43.570;27.832;2023-03-16T03:51:40;98125.75;;;9.00;100.00
9717;BME280;4897;43.570;27.832;2023-03-16T03:54:07;98157.69;;;9.19;100.00
9717;BME280;4897;43.570;27.832;2023-03-16T03:56:36;98138.31;;;9.17;100.00
9717;BME280;4897;43.570;27.832;2023-03-16T03:59:03;98145.75;;;9.23;100.00
9717;BME280;4897;43.570;27.832;2023-03-16T04:01:30;98129.97;;;9.03;100.00
9717;BME280;4897;43.570;27.832;2023-03-16T04:03:56;98156.03;;;9.09;100.00
9717;BME280;4897;43.570;27.832;2023-03-16T04:06:23;98180.31;;;9.06;100.00
9717;BME280;4897;43.570;27.832;2023-03-16T04:08:50;98155.44;;;9.15;100.00
9717;BME280;4897;43.570;27.832;2023-03-16T04:11:18;98159.25;;;9.12;100.00
9717;BME280;4897;43.570;27.832;2023-03-16T04:13:47;98164.16;;;9.17;100.00
9717;BME280;4897;43.570;27.832;2023-03-16T04:16:16;98164.16;;;9.17;100.00
9717;BME280;4897;43.570;27.832;2023-03-16T04:18:43;98168.09;;;9.13;100.00
9717;BME280;4897;43.570;27.832;2023-03-16T04:21:13;98168.63;;;9.16;100.00
9717;BME280;4897;43.570;27.832;2023-03-16T04:23:41;98186.06;;;9.11;100.00
9717;BME280;4897;43.570;27.832;2023-03-16T04:26:08;98184.66;;;9.07;100.00
9717;BME280;4897;43.570;27.832;2023-03-16T04:28:35;98183.56;;;9.09;100.00
9717;BME280;4897;43.570;27.832;2023-03-16T04:31:05;98190.00;;;9.07;100.00
9717;BME280;4897;43.570;27.832;2023-03-16T04:33:32;98185.78;;;9.04;100.00
9717;BME280;4897;43.570;27.832;2023-03-16T04:36:00;98193.09;;;9.02;100.00
9717;BME280;4897;43.570;27.832;2023-03-16T04:38:28;98201.53;;;9.07;100.00
9717;BME280;4897;43.570;27.832;2023-03-16T04:40:55;98197.63;;;8.92;100.00
9717;BME280;4897;43.570;27.832;2023-03-16T04:43:22;98195.50;;;8.96;100.00
9717;BME280;4897;43.570;27.832;2023-03-16T04:45:49;98212.47;;;9.04;100.00
9717;BME280;4897;43.570;27.832;2023-03-16T04:48:17;98216.53;;;8.89;100.00
9717;BME280;4897;43.570;27.832;2023-03-16T04:50:47;98212.63;;;8.83;100.00
9717;BME280;4897;43.570;27.832;2023-03-16T04:53:14;98218.66;;;8.85;100.00
9717;BME280;4897;43.570;27.832;2023-03-16T04:55:43;98224.84;;;8.86;100.00
9717;BME280;4897;43.570;27.832;2023-03-16T04:58:10;98223.44;;;8.82;100.00
9717;BME280;4897;43.570;27.832;2023-03-16T05:00:38;98211.13;;;8.71;100.00
9717;BME280;4897;43.570;27.832;2023-03-16T05:03:06;98228.78;;;8.82;100.00
9717;BME280;4897;43.570;27.832;2023-03-16T05:05:36;98231.88;;;8.77;100.00
9717;BME280;4897;43.570;27.832;2023-03-16T05:08:03;98238.03;;;8.78;100.00
9717;BME280;4897;43.570;27.832;2023-03-16T05:10:31;98238.59;;;8.81;100.00
9717;BME280;4897;43.570;27.832;2023-03-16T05:12:59;98248.41;;;8.81;100.00
9717;BME280;4897;43.570;27.832;2023-03-16T05:15:26;98238.84;;;8.78;100.00
9717;BME280;4897;43.570;27.832;2023-03-16T05:17:55;98242.50;;;8.87;100.00
9717;BME280;4897;43.570;27.832;2023-03-16T05:20:23;98248.69;;;8.88;100.00
9717;BME280;4897;43.570;27.832;2023-03-16T05:22:52;98251.22;;;8.79;100.00
9717;BME280;4897;43.570;27.832;2023-03-16T05:25:20;98243.91;;;8.81;100.00
9717;BME280;4897;43.570;27.832;2023-03-16T05:27:48;98231.16;;;8.75;100.00
9717;BME280;4897;43.570;27.832;2023-03-16T05:30:17;98267.38;;;8.78;100.00
9717;BME280;4897;43.570;27.832;2023-03-16T05:32:44;98266.66;;;8.85;100.00
9717;BME280;4897;43.570;27.832;2023-03-16T05:35:11;98264.25;;;8.82;100.00
9717;BME280;4897;43.570;27.832;2023-03-16T05:37:39;98270.28;;;8.84;100.00
9717;BME280;4897;43.570;27.832;2023-03-16T05:40:15;98251.91;;;8.62;100.00
9717;BME280;4897;43.570;27.832;2023-03-16T05:42:44;98270.16;;;8.67;100.00
9717;BME280;4897;43.570;27.832;2023-03-16T05:45:12;98260.91;;;8.61;100.00
9717;BME280;4897;43.570;27.832;2023-03-16T05:47:40;98287.97;;;8.76;100.00
9717;BME280;4897;43.570;27.832;2023-03-16T05:50:09;98269.16;;;8.58;100.00
9717;BME280;4897;43.570;27.832;2023-03-16T05:52:37;98259.88;;;8.43;100.00
9717;BME280;4897;43.570;27.832;2023-03-16T05:55:05;98288.53;;;8.60;100.00
9717;BME280;4897;43.570;27.832;2023-03-16T05:57:33;98236.84;;;8.23;100.00
9717;BME280;4897;43.570;27.832;2023-03-16T06:00:00;98301.28;;;8.66;100.00
9717;BME280;4897;43.570;27.832;2023-03-16T06:02:36;98289.66;;;8.67;100.00
9717;BME280;4897;43.570;27.832;2023-03-16T06:05:03;98294.13;;;8.57;100.00
9717;BME280;4897;43.570;27.832;2023-03-16T06:07:30;98310.41;;;8.54;100.00
9717;BME280;4897;43.570;27.832;2023-03-16T06:09:57;98309.41;;;8.55;100.00
9717;BME280;4897;43.570;27.832;2023-03-16T06:12:24;98305.63;;;8.48;100.00
9717;BME280;4897;43.570;27.832;2023-03-16T06:14:52;98314.41;;;8.39;100.00
9717;BME280;4897;43.570;27.832;2023-03-16T06:17:19;98315.13;;;8.41;100.00
9717;BME280;4897;43.570;27.832;2023-03-16T06:19:46;98296.47;;;8.41;100.00
9717;BME280;4897;43.570;27.832;2023-03-16T06:22:13;98303.06;;;8.37;100.00
9717;BME280;4897;43.570;27.832;2023-03-16T06:24:40;98306.03;;;8.34;100.00
9717;BME280;4897;43.570;27.832;2023-03-16T06:27:07;98306.44;;;8.39;100.00
9717;BME280;4897;43.570;27.832;2023-03-16T06:29:34;98313.31;;;8.51;100.00
9717;BME280;4897;43.570;27.832;2023-03-16T06:32:03;98296.94;;;8.46;100.00
9717;BME280;4897;43.570;27.832;2023-03-16T06:34:30;98302.25;;;8.46;100.00
9717;BME280;4897;43.570;27.832;2023-03-16T06:37:01;98315.56;;;8.46;100.00
9717;BME280;4897;43.570;27.832;2023-03-16T06:39:28;98314.56;;;8.47;100.00
9717;BME280;4897;43.570;27.832;2023-03-16T06:41:55;98322.31;;;8.50;100.00
9717;BME280;4897;43.570;27.832;2023-03-16T06:44:22;98326.63;;;8.51;100.00
9717;BME280;4897;43.570;27.832;2023-03-16T06:46:49;98336.63;;;8.59;100.00
9717;BME280;4897;43.570;27.832;2023-03-16T06:49:18;98331.25;;;8.49;100.00
9717;BME280;4897;43.570;27.832;2023-03-16T06:51:45;98328.63;;;8.59;100.00
9717;BME280;4897;43.570;27.832;2023-03-16T06:54:12;98332.00;;;8.70;100.00
9717;BME280;4897;43.570;27.832;2023-03-16T06:56:39;98288.50;;;8.41;100.00
9717;BME280;4897;43.570;27.832;2023-03-16T06:59:06;98359.66;;;8.69;100.00
9717;BME280;4897;43.570;27.832;2023-03-16T07:01:33;98349.38;;;8.55;100.00
9717;BME280;4897;43.570;27.832;2023-03-16T07:04:00;98369.47;;;8.59;100.00
9717;BME280;4897;43.570;27.832;2023-03-16T07:06:29;98359.75;;;8.58;100.00
9717;BME280;4897;43.570;27.832;2023-03-16T07:08:56;98358.34;;;8.54;100.00
9717;BME280;4897;43.570;27.832;2023-03-16T07:11:22;98359.84;;;8.38;100.00
9717;BME280;4897;43.570;27.832;2023-03-16T07:13:49;98300.13;;;8.00;100.00
9717;BME280;4897;43.570;27.832;2023-03-16T07:16:17;98360.78;;;8.27;100.00
9717;BME280;4897;43.570;27.832;2023-03-16T07:18:44;98381.31;;;8.36;100.00
9717;BME280;4897;43.570;27.832;2023-03-16T07:21:11;98385.94;;;8.34;100.00
9717;BME280;4897;43.570;27.832;2023-03-16T07:23:40;98377.63;;;8.28;100.00
9717;BME280;4897;43.570;27.832;2023-03-16T07:26:07;98387.19;;;8.30;100.00
9717;BME280;4897;43.570;27.832;2023-03-16T07:28:36;98372.00;;;8.31;100.00
9717;BME280;4897;43.570;27.832;2023-03-16T07:31:04;98385.81;;;8.45;100.00
9717;BME280;4897;43.570;27.832;2023-03-16T07:33:31;98392.53;;;8.49;100.00
9717;BME280;4897;43.570;27.832;2023-03-16T07:35:59;98391.56;;;8.50;100.00
9717;BME280;4897;43.570;27.832;2023-03-16T07:38:28;98388.38;;;8.26;100.00
9717;BME280;4897;43.570;27.832;2023-03-16T07:40:58;98262.38;;;7.46;100.00
9717;BME280;4897;43.570;27.832;2023-03-16T07:43:25;98401.09;;;8.23;100.00
9717;BME280;4897;43.570;27.832;2023-03-16T07:45:53;98403.41;;;8.27;100.00
9717;BME280;4897;43.570;27.832;2023-03-16T07:48:20;98415.47;;;8.31;100.00
9717;BME280;4897;43.570;27.832;2023-03-16T07:50:48;98408.50;;;8.40;100.00
9717;BME280;4897;43.570;27.832;2023-03-16T07:53:15;98417.06;;;8.43;100.00
9717;BME280;4897;43.570;27.832;2023-03-16T07:55:43;98413.16;;;8.47;100.00
9717;BME280;4897;43.570;27.832;2023-03-16T07:58:11;98403.50;;;8.46;100.00
9717;BME280;4897;43.570;27.832;2023-03-16T08:00:39;98421.19;;;8.57;100.00
9717;BME280;4897;43.570;27.832;2023-03-16T08:03:07;98418.69;;;8.65;100.00
9717;BME280;4897;43.570;27.832;2023-03-16T08:05:36;98417.66;;;8.56;100.00
9717;BME280;4897;43.570;27.832;2023-03-16T08:08:03;98421.72;;;8.51;100.00
9717;BME280;4897;43.570;27.832;2023-03-16T08:10:34;98425.91;;;8.53;100.00
9717;BME280;4897;43.570;27.832;2023-03-16T08:13:02;98419.78;;;8.53;100.00
9717;BME280;4897;43.570;27.832;2023-03-16T08:15:31;98416.16;;;8.63;100.00
9717;BME280;4897;43.570;27.832;2023-03-16T08:17:59;98427.41;;;8.76;100.00
9717;BME280;4897;43.570;27.832;2023-03-16T08:20:26;98424.03;;;8.74;100.00
9717;BME280;4897;43.570;27.832;2023-03-16T08:22:54;98420.25;;;8.67;100.00
9717;BME280;4897;43.570;27.832;2023-03-16T08:25:21;98428.34;;;8.66;100.00
9717;BME280;4897;43.570;27.832;2023-03-16T08:27:48;98440.56;;;8.68;100.00
9717;BME280;4897;43.570;27.832;2023-03-16T08:30:15;98425.91;;;8.53;100.00
9717;BME280;4897;43.570;27.832;2023-03-16T08:32:44;98439.16;;;8.64;100.00
9717;BME280;4897;43.570;27.832;2023-03-16T08:35:13;98435.53;;;8.65;100.00
9717;BME280;4897;43.570;27.832;2023-03-16T08:37:41;98440.81;;;8.56;100.00
9717;BME280;4897;43.570;27.832;2023-03-16T08:40:11;98458.75;;;8.54;100.00
9717;BME280;4897;43.570;27.832;2023-03-16T08:42:42;98462.16;;;8.65;100.00
9717;BME280;4897;43.570;27.832;2023-03-16T08:45:10;98468.75;;;8.61;100.00
9717;BME280;4897;43.570;27.832;2023-03-16T08:47:38;98470.44;;;8.72;100.00
9717;BME280;4897;43.570;27.832;2023-03-16T08:50:09;98467.50;;;8.65;100.00
9717;BME280;4897;43.570;27.832;2023-03-16T08:52:38;98477.22;;;8.76;100.00
9717;BME280;4897;43.570;27.832;2023-03-16T08:55:06;98468.38;;;8.75;100.00
9717;BME280;4897;43.570;27.832;2023-03-16T08:57:35;98478.34;;;8.83;100.00
9717;BME280;4897;43.570;27.832;2023-03-16T09:00:04;98479.03;;;8.75;100.00
9717;BME280;4897;43.570;27.832;2023-03-16T09:02:37;98476.91;;;8.69;100.00
9717;BME280;4897;43.570;27.832;2023-03-16T09:05:08;98488.69;;;8.76;100.00
9717;BME280;4897;43.570;27.832;2023-03-16T09:07:36;98492.94;;;8.79;100.00
9717;BME280;4897;43.570;27.832;2023-03-16T09:10:04;98495.91;;;8.85;100.00
9717;BME280;4897;43.570;27.832;2023-03-16T09:12:34;98485.50;;;8.82;100.00
9717;BME280;4897;43.570;27.832;2023-03-16T09:15:02;98504.59;;;8.88;100.00
9717;BME280;4897;43.570;27.832;2023-03-16T09:17:30;98507.84;;;8.91;100.00
9717;BME280;4897;43.570;27.832;2023-03-16T09:19:57;98495.91;;;8.95;100.00
9717;BME280;4897;43.570;27.832;2023-03-16T09:22:26;98481.31;;;8.90;100.00
9717;BME280;4897;43.570;27.832;2023-03-16T09:24:53;98497.38;;;9.09;100.00
9717;BME280;4897;43.570;27.832;2023-03-16T09:27:20;98501.91;;;9.18;100.00
9717;BME280;4897;43.570;27.832;2023-03-16T09:29:47;98506.38;;;9.27;100.00
9717;BME280;4897;43.570;27.832;2023-03-16T09:32:17;98510.00;;;9.16;100.00
9717;BME280;4897;43.570;27.832;2023-03-16T09:34:44;98514.22;;;9.19;100.00
9717;BME280;4897;43.570;27.832;2023-03-16T09:37:11;98513.94;;;9.12;100.00
9717;BME280;4897;43.570;27.832;2023-03-16T09:39:42;98485.56;;;9.02;100.00
9717;BME280;4897;43.570;27.832;2023-03-16T09:42:15;98508.53;;;8.83;100.00
9717;BME280;4897;43.570;27.832;2023-03-16T09:44:55;98498.03;;;8.92;100.00
9717;BME280;4897;43.570;27.832;2023-03-16T09:47:27;98506.81;;;8.82;100.00
9717;BME280;4897;43.570;27.832;2023-03-16T09:49:58;98510.06;;;8.86;100.00
9717;BME280;4897;43.570;27.832;2023-03-16T09:52:32;98510.19;;;8.84;100.00
9717;BME280;4897;43.570;27.832;2023-03-16T09:55:06;98528.44;;;8.89;100.00
9717;BME280;4897;43.570;27.832;2023-03-16T09:57:41;98527.97;;;9.05;100.00
9717;BME280;4897;43.570;27.832;2023-03-16T10:03:04;98528.75;;;8.96;100.00
9717;BME280;4897;43.570;27.832;2023-03-16T10:05:36;98521.72;;;8.85;100.00
9717;BME280;4897;43.570;27.832;2023-03-16T10:08:09;98522.88;;;9.02;100.00
9717;BME280;4897;43.570;27.832;2023-03-16T10:10:50;98536.09;;;9.03;100.00
9717;BME280;4897;43.570;27.832;2023-03-16T10:13:28;98544.50;;;8.99;100.00
9717;BME280;4897;43.570;27.832;2023-03-16T10:16:00;98547.03;;;9.00;100.00
9717;BME280;4897;43.570;27.832;2023-03-16T10:18:35;98539.72;;;9.02;100.00
9717;BME280;4897;43.570;27.832;2023-03-16T10:21:09;98548.06;;;9.18;100.00
9717;BME280;4897;43.570;27.832;2023-03-16T10:23:38;98536.13;;;9.22;100.00
9717;BME280;4897;43.570;27.832;2023-03-16T10:26:12;98531.09;;;9.19;100.00
9717;BME280;4897;43.570;27.832;2023-03-16T10:28:39;98538.41;;;9.27;100.00
9717;BME280;4897;43.570;27.832;2023-03-16T10:31:09;98545.13;;;9.31;100.00
9717;BME280;4897;43.570;27.832;2023-03-16T10:33:36;98548.50;;;9.33;100.00
9717;BME280;4897;43.570;27.832;2023-03-16T10:36:11;98542.91;;;9.36;100.00
9717;BME280;4897;43.570;27.832;2023-03-16T10:38:43;98515.50;;;9.15;100.00
9717;BME280;4897;43.570;27.832;2023-03-16T10:41:22;98547.41;;;9.26;100.00
9717;BME280;4897;43.570;27.832;2023-03-16T10:43:54;98550.75;;;9.28;100.00
9717;BME280;4897;43.570;27.832;2023-03-16T10:46:22;98548.50;;;9.33;100.00
9717;BME280;4897;43.570;27.832;2023-03-16T10:48:51;98549.75;;;9.19;100.00
9717;BME280;4897;43.570;27.832;2023-03-16T10:51:23;98554.53;;;9.25;100.00
9717;BME280;4897;43.570;27.832;2023-03-16T10:53:51;98550.16;;;9.15;100.00
9717;BME280;4897;43.570;27.832;2023-03-16T10:56:23;98548.59;;;9.12;100.00
9717;BME280;4897;43.570;27.832;2023-03-16T10:58:51;98537.78;;;9.14;100.00
9717;BME280;4897;43.570;27.832;2023-03-16T11:01:20;98539.50;;;9.24;100.00
9717;BME280;4897;43.570;27.832;2023-03-16T11:03:50;98554.00;;;9.41;100.00
9717;BME280;4897;43.570;27.832;2023-03-16T11:06:22;98525.34;;;9.33;100.00
9717;BME280;4897;43.570;27.832;2023-03-16T11:08:51;98554.59;;;9.54;100.00
9717;BME280;4897;43.570;27.832;2023-03-16T11:11:25;98503.00;;;9.15;100.00
9717;BME280;4897;43.570;27.832;2023-03-16T11:14:24;98460.69;;;8.52;100.00
9717;BME280;4897;43.570;27.832;2023-03-16T11:17:09;98507.16;;;8.99;100.00
9717;BME280;4897;43.570;27.832;2023-03-16T11:19:40;98553.00;;;9.23;100.00
9717;BME280;4897;43.570;27.832;2023-03-16T11:22:14;98551.44;;;9.20;100.00
9717;BME280;4897;43.570;27.832;2023-03-16T11:24:47;98553.38;;;9.09;100.00
9717;BME280;4897;43.570;27.832;2023-03-16T11:27:22;98536.09;;;9.03;100.00
9717;BME280;4897;43.570;27.832;2023-03-16T11:30:04;98560.28;;;9.21;100.00
9717;BME280;4897;43.570;27.832;2023-03-16T11:32:36;98555.19;;;9.08;100.00
9717;BME280;4897;43.570;27.832;2023-03-16T11:35:15;98567.31;;;9.22;100.00
9717;BME280;4897;43.570;27.832;2023-03-16T11:37:59;98572.84;;;8.69;100.00
9717;BME280;4897;43.570;27.832;2023-03-16T11:40:37;98577.25;;;8.29;100.00
9717;BME280;4897;43.570;27.832;2023-03-16T11:43:21;98560.66;;;8.05;100.00
9717;BME280;4897;43.570;27.832;2023-03-16T11:45:55;98584.91;;;8.12;100.00
9717;BME280;4897;43.570;27.832;2023-03-16T11:48:31;98512.75;;;7.42;100.00
9717;BME280;4897;43.570;27.832;2023-03-16T11:51:05;98592.31;;;7.76;100.00
9717;BME280;4897;43.570;27.832;2023-03-16T11:53:45;98582.06;;;7.40;100.00
9717;BME280;4897;43.570;27.832;2023-03-16T11:56:20;98580.84;;;7.33;100.00
9717;BME280;4897;43.570;27.832;2023-03-16T11:59:15;98594.78;;;7.25;100.00
9717;BME280;4897;43.570;27.832;2023-03-16T12:01:56;98614.59;;;7.21;100.00
9717;BME280;4897;43.570;27.832;2023-03-16T12:04:42;98553.94;;;6.82;100.00
9717;BME280;4897;43.570;27.832;2023-03-16T12:07:22;98630.78;;;7.18;100.00
9717;BME280;4897;43.570;27.832;2023-03-16T12:10:00;98618.47;;;7.06;100.00
9717;BME280;4897;43.570;27.832;2023-03-16T12:12:37;98620.88;;;7.09;100.00
9717;BME280;4897;43.570;27.832;2023-03-16T12:15:33;98622.06;;;7.16;100.00
9717;BME280;4897;43.570;27.832;2023-03-16T12:18:08;98604.69;;;6.90;100.00
9717;BME280;4897;43.570;27.832;2023-03-16T12:20:41;98613.50;;;7.02;100.00
9717;BME280;4897;43.570;27.832;2023-03-16T12:23:11;98630.41;;;7.12;100.00
9717;BME280;4897;43.570;27.832;2023-03-16T12:25:42;98631.16;;;7.03;100.00
9717;BME280;4897;43.570;27.832;2023-03-16T12:28:17;98598.63;;;6.99;100.00
9717;BME280;4897;43.570;27.832;2023-03-16T12:31:05;98618.34;;;7.08;100.00
9717;BME280;4897;43.570;27.832;2023-03-16T12:33:42;98630.06;;;7.05;100.00
9717;BME280;4897;43.570;27.832;2023-03-16T12:36:38;98637.28;;;7.37;100.00
9717;BME280;4897;43.570;27.832;2023-03-16T12:39:12;98639.00;;;7.38;100.00
9717;BME280;4897;43.570;27.832;2023-03-16T12:41:56;98630.16;;;7.26;100.00
9717;BME280;4897;43.570;27.832;2023-03-16T12:44:30;98633.06;;;7.23;100.00
9717;BME280;4897;43.570;27.832;2023-03-16T12:47:08;98648.66;;;7.16;100.00
9717;BME280;4897;43.570;27.832;2023-03-16T12:49:38;98634.41;;;7.17;100.00
9717;BME280;4897;43.570;27.832;2023-03-16T12:52:07;98649.75;;;7.14;100.00
9717;BME280;4897;43.570;27.832;2023-03-16T12:54:47;98633.31;;;6.98;100.00
9717;BME280;4897;43.570;27.832;2023-03-16T12:57:23;98659.19;;;7.07;100.00
9717;BME280;4897;43.570;27.832;2023-03-16T12:59:56;98650.72;;;7.02;100.00
9717;BME280;4897;43.570;27.832;2023-03-16T13:02:29;98677.28;;;7.24;100.00
9717;BME280;4897;43.570;27.832;2023-03-16T13:04:59;98676.53;;;7.55;100.00
9717;BME280;4897;43.570;27.832;2023-03-16T13:07:29;98674.03;;;7.54;100.00
9717;BME280;4897;43.570;27.832;2023-03-16T13:10:03;98675.00;;;7.42;100.00
9717;BME280;4897;43.570;27.832;2023-03-16T13:12:34;98672.59;;;7.28;100.00
9717;BME280;4897;43.570;27.832;2023-03-16T13:15:21;98668.97;;;7.17;100.00
9717;BME280;4897;43.570;27.832;2023-03-16T13:18:05;98662.66;;;7.07;100.00
9717;BME280;4897;43.570;27.832;2023-03-16T13:20:33;98686.63;;;7.30;100.00
9717;BME280;4897;43.570;27.832;2023-03-16T13:23:17;98690.50;;;7.25;100.00
9717;BME280;4897;43.570;27.832;2023-03-16T13:25:59;98680.19;;;6.99;100.00
9717;BME280;4897;43.570;27.832;2023-03-16T13:28:30;98692.38;;;7.01;100.00